Aérodrome :







RETROUVEZ-NOUS SUR...

 
LOGIN :

S'inscrire | Disclaimer

   EN    FR    IT 

 









Légende :    VFR   VFR Marginal   IFR   IFR Intensif   IFR Très Intensif
Visi : 
Plafond : 
>= 8 km
>= 3000ft
5 à 8 km
1000 à 3000 ft
1500m à 5 km
500 à 1000 ft
800 à 1500m
200 à 500 ft
< 800m
< 200 ft
Symboles :   Orages  Brouillard  Fortes neiges  Fortes précipitations  Vent > 20 kt






- Altitude de l'aérodrome : 148 ft


KLWM - Lawrence Municipal

DERNIER METAR :
  • 171554Z 32015G21KT 10SM CLR M09/M22 A3054 RMK AO2 SLP345 T10941222

METARs EXPIRÉS :
  • 171454Z 31011G22KT 10SM CLR M11/M21 A3053 RMK AO2 PK WND 30026/1418 SLP341 T11061211 51042
  • 171354Z 31015G25KT 10SM CLR M11/M21 A3051 RMK AO2 PK WND 31026/1316 SLP333 T11111211

TAF N/A



MET'MAP, la Météo Aéronautique d'un coup d'oeil ! - Copyright ORBIFLY Décembre 2007 - Disclaimer

ORBIFLY MET'MAP TEAM :

Programmation & Développement : Alexandra Zaïnal
Sur une idée originale de : Baudouin d'Aumeries
Assistance à la programmation : Marc-Olivier Méhu
Soutien technique & logistique : Manuel Goepfert

Contact : metmap@orbifly.com




SOURCES & CREDITS :

   NOAA